Connexion S'enregistrer

Connexion à votre compte

Identifiant
Mot de passe
Maintenir la connexion active sur ce site

Créer un compte

Pour valider ce formulaire, vous devez remplir tous les champs.
Nom
Identifiant
Mot de passe
Répétez le mot de passe
Adresse e-mail
Répétez l'adresse e-mail
Captcha

Nous contacter

 Téléphone : +33 (0)4 79 54 41 81

Coordonnées détaillées et accès : cliquez ici

facebook 770688 960 720  logo instagram large

[source: ADDS]
METAR / TAF
LFLB 042130Z AUTO VRB03KT 9999 BKN060 BKN098 BKN130 23/17 Q1019 =
TAF LFLB 041400Z 0415/0515 33004KT 9999 SCT090 TEMPO 0415/0424 SCT090TCU PROB40 TEMPO 0415/0424 -SHRA FEW080CB SCT090TCU PROB30 TEMPO 0415/0424 VRB15G25KT 4000 TSRA BKN070CB BECMG 0418/0420 VRB02KT BECMG 0507/0509 04007KT

SR / SS: 03:52 / 19:28 UTC (Lever/Coucher du soleil le 2022-07-04)
JSN Boot template designed by JoomlaShine.com